Time;durP1;ratioP1;P1;durP2;ratioP2;P2;SDS_P1;SDS_P2;PMS_P1;PMS_P2;Temp;Humidity;BMP_temperature;BMP_pressure;BME280_temperature;BME280_humidity;BME280_pressure;Samples;Min_cycle;Max_cycle;Signal;HPM_P1;HPM_P2
2023/05/14 00:00:39;;;;;;;7.43;5.20;;;15.80;96.70;;;;;;5091120;28;20209;-66
2023/05/14 00:03:06;;;;;;;6.67;4.70;;;15.80;96.70;;;;;;5099018;28;20243;-66
2023/05/14 00:05:36;;;;;;;6.93;4.73;;;15.80;96.70;;;;;;5108613;28;20204;-66
2023/05/14 00:08:04;;;;;;;7.27;4.40;;;15.80;96.60;;;;;;5097863;28;20551;-66
2023/05/14 00:10:31;;;;;;;4.93;3.93;;;15.80;96.60;;;;;;5105431;28;20627;-66
2023/05/14 00:12:58;;;;;;;6.30;3.37;;;15.80;96.60;;;;;;5100401;28;20190;-66
2023/05/14 00:15:25;;;;;;;6.93;3.73;;;15.80;96.60;;;;;;5100085;28;20276;-66
2023/05/14 00:17:52;;;;;;;10.20;4.13;;;15.70;96.60;;;;;;5098547;28;20198;-66
2023/05/14 00:20:21;;;;;;;5.87;4.20;;;15.70;96.50;;;;;;5100774;28;20216;-66
2023/05/14 00:22:52;;;;;;;5.33;3.90;;;15.70;96.50;;;;;;5101228;28;20656;-66
2023/05/14 00:25:19;;;;;;;5.97;4.33;;;15.70;96.60;;;;;;5097528;28;20507;-66
2023/05/14 00:27:49;;;;;;;4.63;3.50;;;15.70;96.70;;;;;;5102923;28;20689;-66
2023/05/14 00:30:18;;;;;;;5.23;4.10;;;15.60;96.70;;;;;;5101342;28;20201;-66
2023/05/14 00:32:45;;;;;;;11.63;4.13;;;15.60;96.70;;;;;;5105746;28;20279;-66
2023/05/14 00:35:20;;;;;;;12.03;5.00;;;15.60;96.80;;;;;;5100736;28;20794;-66
2023/05/14 00:37:47;;;;;;;8.70;4.33;;;15.60;96.90;;;;;;5104429;28;20638;-66
2023/05/14 00:40:16;;;;;;;7.93;4.00;;;15.60;97.00;;;;;;5091619;28;20657;-66
2023/05/14 00:42:44;;;;;;;8.90;5.03;;;15.60;97.00;;;;;;5087460;28;20239;-66
2023/05/14 00:45:13;;;;;;;5.53;4.37;;;15.60;97.20;;;;;;5104393;28;20240;-66
2023/05/14 00:47:40;;;;;;;5.93;4.73;;;15.60;97.20;;;;;;5097954;28;20193;-65
2023/05/14 00:50:07;;;;;;;6.70;4.20;;;15.60;97.20;;;;;;5106192;28;20207;-66
2023/05/14 00:52:36;;;;;;;6.13;4.70;;;15.60;97.20;;;;;;5098733;28;20622;-66
2023/05/14 00:55:04;;;;;;;5.10;4.33;;;15.60;97.20;;;;;;5105501;28;20200;-66
2023/05/14 00:57:33;;;;;;;6.53;4.53;;;15.60;97.30;;;;;;5099179;28;20195;-66
2023/05/14 01:00:00;;;;;;;7.07;4.90;;;15.60;97.30;;;;;;5090256;28;20680;-66
2023/05/14 01:02:27;;;;;;;5.47;4.70;;;15.60;97.30;;;;;;5106084;28;20207;-66
2023/05/14 01:04:57;;;;;;;6.63;5.10;;;15.60;97.30;;;;;;5101962;28;20219;-66
2023/05/14 01:07:30;;;;;;;5.33;4.80;;;15.60;97.20;;;;;;5104712;28;20194;-66
2023/05/14 01:10:24;;;;;;;11.13;5.83;;;15.60;97.20;;;;;;5096358;28;20241;-66
2023/05/14 01:13:31;;;;;;;8.77;5.57;;;15.60;97.10;;;;;;5111473;28;20196;-66
2023/05/14 01:15:59;;;;;;;9.33;5.80;;;15.60;97.00;;;;;;5023376;28;20279;-66
2023/05/14 01:18:27;;;;;;;8.47;5.57;;;15.60;96.90;;;;;;5096061;28;20281;-66
2023/05/14 01:21:00;;;;;;;10.40;5.70;;;15.50;96.90;;;;;;5092932;28;20650;-66
2023/05/14 01:23:27;;;;;;;7.17;6.23;;;15.50;96.90;;;;;;5108298;28;20208;-66
2023/05/14 01:25:57;;;;;;;8.90;6.80;;;15.40;96.90;;;;;;5106569;28;20212;-66
2023/05/14 01:28:34;;;;;;;10.37;6.50;;;15.40;97.00;;;;;;5094505;28;20229;-66
2023/05/14 01:31:09;;;;;;;8.67;6.60;;;15.40;97.20;;;;;;5109674;28;20272;-66
2023/05/14 01:33:41;;;;;;;10.57;7.03;;;15.40;97.30;;;;;;5110875;28;20213;-66
2023/05/14 01:36:09;;;;;;;10.50;7.20;;;15.30;97.40;;;;;;5102910;28;20226;-66
2023/05/14 01:38:44;;;;;;;7.67;6.87;;;15.30;97.50;;;;;;5090154;28;20200;-66
2023/05/14 01:41:16;;;;;;;9.07;6.80;;;15.30;97.60;;;;;;5097762;28;20208;-66
2023/05/14 01:43:44;;;;;;;15.60;8.03;;;15.30;97.70;;;;;;5108339;28;20211;-66
2023/05/14 01:46:11;;;;;;;14.20;7.10;;;15.20;97.70;;;;;;5104088;28;20205;-66
2023/05/14 01:48:40;;;;;;;13.40;8.30;;;15.20;97.80;;;;;;5090810;28;20591;-66
2023/05/14 01:51:07;;;;;;;9.53;7.60;;;15.20;97.80;;;;;;5095077;28;20208;-66
2023/05/14 01:53:34;;;;;;;14.70;8.20;;;15.30;97.80;;;;;;5107811;28;20197;-66
2023/05/14 01:56:02;;;;;;;12.47;8.83;;;15.20;97.80;;;;;;5104124;28;20196;-66
2023/05/14 01:58:29;;;;;;;14.77;9.23;;;15.20;97.80;;;;;;5106786;28;20623;-66
2023/05/14 02:00:56;;;;;;;11.60;9.43;;;15.30;97.70;;;;;;5087782;28;20247;-66
2023/05/14 02:03:25;;;;;;;10.43;8.30;;;15.20;97.70;;;;;;5101172;28;20200;-66
2023/05/14 02:05:52;;;;;;;12.17;7.53;;;15.20;97.70;;;;;;5108622;28;20280;-66
2023/05/14 02:08:19;;;;;;;11.93;7.63;;;15.20;97.70;;;;;;5102421;28;20200;-66
2023/05/14 02:10:50;;;;;;;8.77;7.60;;;15.20;97.60;;;;;;5107056;28;20288;-66
2023/05/14 02:13:17;;;;;;;11.67;7.30;;;15.20;97.50;;;;;;5106440;28;20262;-66
2023/05/14 02:15:46;;;;;;;13.13;7.83;;;15.10;97.40;;;;;;5097405;28;20251;-66
2023/05/14 02:18:18;;;;;;;11.87;6.93;;;15.10;97.40;;;;;;5095385;28;20202;-66
2023/05/14 02:20:45;;;;;;;9.53;7.60;;;15.00;97.50;;;;;;5104045;28;20204;-66
2023/05/14 02:23:12;;;;;;;8.43;6.50;;;15.00;97.50;;;;;;5105608;28;20197;-66
2023/05/14 02:25:39;;;;;;;7.77;6.50;;;15.00;97.60;;;;;;5102399;28;20196;-66
2023/05/14 02:28:06;;;;;;;7.40;6.57;;;15.00;97.60;;;;;;5106710;28;20572;-66
2023/05/14 02:30:33;;;;;;;8.80;6.53;;;15.00;97.60;;;;;;5097054;28;20232;-66
2023/05/14 02:33:00;;;;;;;8.10;6.30;;;15.00;97.60;;;;;;5095043;28;20288;-66
2023/05/14 02:35:27;;;;;;;7.30;6.60;;;15.00;97.60;;;;;;5087920;28;20675;-66
2023/05/14 02:37:58;;;;;;;10.50;6.40;;;15.00;97.60;;;;;;5084392;28;20237;-66
2023/05/14 02:40:27;;;;;;;9.93;7.07;;;15.00;97.60;;;;;;5083477;28;20249;-66
2023/05/14 02:42:53;;;;;;;8.97;6.77;;;15.00;97.50;;;;;;5086846;28;20601;-66
2023/05/14 02:45:20;;;;;;;6.23;5.63;;;15.00;97.50;;;;;;5082938;28;20216;-66
2023/05/14 02:47:47;;;;;;;6.33;5.20;;;15.00;97.80;;;;;;5084951;28;20280;-65
2023/05/14 02:50:16;;;;;;;9.97;5.33;;;14.90;97.50;;;;;;5086350;28;20212;-65
2023/05/14 02:52:42;;;;;;;5.77;5.17;;;14.90;97.60;;;;;;5084499;28;20654;-65
2023/05/14 02:55:12;;;;;;;10.83;5.07;;;14.80;97.70;;;;;;5084769;28;20554;-65
2023/05/14 02:57:44;;;;;;;5.67;4.83;;;14.90;97.90;;;;;;5090617;28;20287;-65
2023/05/14 03:00:14;;;;;;;6.73;4.40;;;14.80;97.90;;;;;;5083277;28;20306;-65
2023/05/14 03:02:42;;;;;;;6.13;4.23;;;14.80;98.00;;;;;;5087306;28;20196;-65
2023/05/14 03:05:10;;;;;;;7.70;4.37;;;14.80;98.00;;;;;;5090491;28;20200;-65
2023/05/14 03:07:40;;;;;;;7.33;4.80;;;14.80;98.00;;;;;;5092690;28;20231;-65
2023/05/14 03:10:07;;;;;;;6.83;3.73;;;14.80;98.00;;;;;;5085867;28;20308;-65
2023/05/14 03:12:34;;;;;;;5.63;4.23;;;14.80;98.00;;;;;;5099274;28;20553;-65
2023/05/14 03:15:01;;;;;;;10.80;4.67;;;14.80;98.10;;;;;;5082140;28;20620;-65
2023/05/14 03:17:30;;;;;;;5.53;4.17;;;14.70;98.10;;;;;;5088571;28;20749;-65
2023/05/14 03:19:57;;;;;;;4.87;3.73;;;14.70;98.20;;;;;;5081864;28;20332;-65
2023/05/14 03:22:27;;;;;;;6.30;3.57;;;14.80;98.20;;;;;;5085753;28;20216;-65
2023/05/14 03:24:57;;;;;;;5.13;3.90;;;14.70;98.20;;;;;;5088661;28;20642;-65
2023/05/14 03:27:25;;;;;;;6.30;4.13;;;14.70;98.30;;;;;;5084529;28;20230;-65
2023/05/14 03:29:55;;;;;;;5.77;3.67;;;14.60;98.30;;;;;;5084167;28;20228;-65
2023/05/14 03:32:22;;;;;;;10.27;4.27;;;14.60;98.40;;;;;;5088402;28;20208;-66
2023/05/14 03:34:49;;;;;;;5.50;4.27;;;14.60;98.50;;;;;;5097366;28;20289;-65
2023/05/14 03:37:20;;;;;;;4.37;3.97;;;14.50;98.50;;;;;;5105224;28;20242;-65
2023/05/14 03:39:47;;;;;;;8.20;3.83;;;14.50;98.70;;;;;;5088705;28;20225;-65
2023/05/14 03:42:16;;;;;;;8.40;4.17;;;14.50;98.80;;;;;;5090457;28;20302;-65
2023/05/14 03:44:44;;;;;;;5.43;3.83;;;14.50;98.90;;;;;;5107336;28;20649;-65
2023/05/14 03:47:13;;;;;;;5.90;4.20;;;14.50;99.00;;;;;;5099264;28;20626;-65
2023/05/14 03:49:42;;;;;;;7.63;3.90;;;14.50;99.00;;;;;;5084671;28;20205;-65
2023/05/14 03:52:10;;;;;;;5.13;3.53;;;14.50;98.90;;;;;;5089694;28;20256;-66
2023/05/14 03:54:40;;;;;;;5.90;4.07;;;14.50;99.00;;;;;;5090544;28;20610;-65
2023/05/14 03:57:09;;;;;;;5.57;3.87;;;14.60;99.20;;;;;;5091307;28;20269;-66
2023/05/14 03:59:37;;;;;;;10.37;3.93;;;14.60;99.20;;;;;;5090234;28;20601;-66
2023/05/14 04:02:03;;;;;;;5.60;3.30;;;14.60;99.20;;;;;;5095061;28;21338;-65
2023/05/14 04:04:30;;;;;;;4.07;3.10;;;14.70;99.10;;;;;;5101927;28;20200;-65
2023/05/14 04:06:58;;;;;;;5.03;3.50;;;14.60;99.00;;;;;;5105106;28;20249;-66
2023/05/14 04:09:27;;;;;;;4.90;3.40;;;14.70;98.90;;;;;;5095169;28;20291;-65
2023/05/14 04:11:55;;;;;;;4.07;3.73;;;14.60;98.90;;;;;;5087169;28;20199;-65
2023/05/14 04:14:23;;;;;;;4.53;3.53;;;14.60;98.90;;;;;;5090450;28;20203;-65
2023/05/14 04:16:50;;;;;;;4.13;3.10;;;14.60;98.90;;;;;;5091721;28;20602;-65
2023/05/14 04:19:17;;;;;;;5.03;3.53;;;14.60;98.90;;;;;;5103944;28;20261;-65
2023/05/14 04:21:44;;;;;;;4.43;3.57;;;14.60;99.00;;;;;;5103101;28;20215;-65
2023/05/14 04:24:12;;;;;;;4.63;3.77;;;14.50;99.00;;;;;;5106982;28;20251;-65
2023/05/14 04:26:39;;;;;;;8.53;3.70;;;14.50;99.10;;;;;;5101004;28;20203;-65
2023/05/14 04:29:09;;;;;;;4.27;3.90;;;14.50;99.20;;;;;;5104260;28;20197;-66
2023/05/14 04:31:36;;;;;;;9.97;4.73;;;14.50;99.30;;;;;;5106966;28;20208;-65
2023/05/14 04:34:03;;;;;;;5.80;4.10;;;14.40;99.30;;;;;;5106322;28;20246;-65
2023/05/14 04:36:30;;;;;;;6.93;4.83;;;14.40;99.30;;;;;;5101597;28;20661;-65
2023/05/14 04:38:57;;;;;;;7.57;4.93;;;14.40;99.40;;;;;;5103922;28;20281;-65
2023/05/14 04:41:24;;;;;;;5.70;5.10;;;14.40;99.50;;;;;;5100584;28;20225;-65
2023/05/14 04:43:55;;;;;;;7.33;4.77;;;14.40;99.60;;;;;;5105897;28;20284;-65
2023/05/14 04:46:25;;;;;;;7.30;5.97;;;14.40;99.60;;;;;;5102175;28;20200;-65
2023/05/14 04:48:52;;;;;;;12.10;8.13;;;14.40;99.60;;;;;;5106461;28;20202;-65
2023/05/14 04:51:19;;;;;;;10.57;7.93;;;14.40;99.60;;;;;;5100124;28;20213;-65
2023/05/14 04:53:46;;;;;;;12.13;9.33;;;14.50;99.60;;;;;;5090187;28;20207;-65
2023/05/14 04:56:13;;;;;;;13.47;9.70;;;14.50;99.50;;;;;;5100676;28;20576;-65
2023/05/14 04:58:45;;;;;;;14.40;10.90;;;14.40;99.40;;;;;;5102916;28;20208;-65
2023/05/14 05:01:12;;;;;;;10.73;9.57;;;14.40;99.40;;;;;;5101828;28;20214;-65
2023/05/14 05:03:42;;;;;;;13.10;8.73;;;14.40;99.50;;;;;;5105641;28;20532;-65
2023/05/14 05:06:09;;;;;;;8.70;7.80;;;14.40;99.50;;;;;;5103159;28;20200;-65
2023/05/14 05:08:36;;;;;;;6.50;5.90;;;14.40;99.60;;;;;;5098351;28;20273;-65
2023/05/14 05:11:04;;;;;;;14.97;5.60;;;14.30;99.70;;;;;;5102573;28;20288;-65
2023/05/14 05:13:31;;;;;;;5.60;4.73;;;14.40;99.80;;;;;;5105947;28;20209;-65
2023/05/14 05:15:58;;;;;;;6.70;5.30;;;14.40;99.80;;;;;;5104265;28;20203;-65
2023/05/14 05:18:27;;;;;;;8.67;5.03;;;14.40;99.90;;;;;;5101206;28;20340;-65
2023/05/14 05:20:59;;;;;;;7.37;5.10;;;14.40;99.80;;;;;;5098172;28;20206;-65
2023/05/14 05:23:26;;;;;;;6.90;5.10;;;14.40;99.80;;;;;;5090464;28;20279;-65
2023/05/14 05:25:53;;;;;;;6.40;4.33;;;14.40;99.90;;;;;;5085423;28;20252;-65
2023/05/14 05:28:20;;;;;;;5.73;4.47;;;14.40;99.90;;;;;;5105441;28;20287;-65
2023/05/14 05:30:47;;;;;;;7.93;4.90;;;14.40;99.90;;;;;;5100938;28;20215;-65
2023/05/14 05:33:16;;;;;;;4.70;4.20;;;14.50;99.90;;;;;;5104963;28;20199;-64
2023/05/14 05:35:43;;;;;;;4.70;4.13;;;14.40;99.90;;;;;;5105940;28;20239;-65
2023/05/14 05:38:11;;;;;;;6.30;4.80;;;14.40;99.90;;;;;;5103418;28;20301;-65
2023/05/14 05:40:38;;;;;;;10.07;5.00;;;14.40;99.90;;;;;;5097393;28;20226;-65
2023/05/14 05:43:04;;;;;;;9.00;4.37;;;14.40;99.90;;;;;;5108382;28;20231;-65
2023/05/14 05:45:32;;;;;;;6.23;4.10;;;14.40;99.90;;;;;;5100004;28;20358;-65
2023/05/14 05:47:59;;;;;;;6.33;5.00;;;14.40;99.90;;;;;;5096042;28;20594;-65
2023/05/14 05:50:26;;;;;;;11.23;5.57;;;14.40;99.90;;;;;;5103291;28;20205;-64
2023/05/14 05:52:55;;;;;;;7.00;4.77;;;14.50;99.90;;;;;;5097127;28;20712;-64
2023/05/14 05:55:22;;;;;;;5.30;4.80;;;14.50;99.90;;;;;;5105723;28;20277;-65
2023/05/14 05:57:51;;;;;;;6.20;4.93;;;14.50;99.90;;;;;;5102177;28;20203;-65
2023/05/14 06:00:19;;;;;;;7.70;5.03;;;14.50;99.90;;;;;;5110742;28;20216;-65
2023/05/14 06:02:48;;;;;;;8.20;5.73;;;14.50;99.90;;;;;;5099337;28;20215;-65
2023/05/14 06:05:18;;;;;;;5.97;5.37;;;14.60;99.90;;;;;;5104851;28;20208;-65
2023/05/14 06:07:45;;;;;;;6.53;4.80;;;14.60;99.90;;;;;;5092266;28;20237;-64
2023/05/14 06:10:12;;;;;;;8.73;4.93;;;14.60;99.90;;;;;;5105653;28;20197;-64
2023/05/14 06:12:39;;;;;;;6.77;4.83;;;14.70;99.90;;;;;;5103135;28;20298;-65
2023/05/14 06:15:07;;;;;;;9.43;5.10;;;14.70;99.90;;;;;;5103846;28;20274;-65
2023/05/14 06:17:34;;;;;;;7.27;5.23;;;14.80;99.90;;;;;;5109597;28;20204;-65
2023/05/14 06:20:01;;;;;;;6.97;5.43;;;14.80;99.90;;;;;;5103647;28;20268;-65
2023/05/14 06:22:31;;;;;;;5.37;4.87;;;14.90;99.90;;;;;;5104289;28;20199;-65
2023/05/14 06:24:58;;;;;;;6.47;4.67;;;14.90;99.90;;;;;;5109409;28;20219;-65
2023/05/14 06:27:27;;;;;;;8.13;5.00;;;15.00;99.90;;;;;;5097163;28;20669;-65
2023/05/14 06:29:55;;;;;;;6.67;5.37;;;15.00;99.90;;;;;;5109075;28;20208;-65
2023/05/14 06:32:24;;;;;;;5.57;4.93;;;15.00;99.90;;;;;;5107400;28;20201;-65
2023/05/14 06:34:54;;;;;;;8.23;4.90;;;15.20;99.90;;;;;;5109104;28;20274;-65
2023/05/14 06:37:21;;;;;;;7.53;4.77;;;15.20;99.90;;;;;;5105079;28;20197;-65
2023/05/14 06:39:49;;;;;;;8.03;5.07;;;15.30;99.90;;;;;;5105330;28;20292;-65
2023/05/14 06:42:16;;;;;;;6.97;5.53;;;15.30;99.90;;;;;;5105113;28;20225;-65
2023/05/14 06:44:44;;;;;;;5.33;4.83;;;15.40;99.90;;;;;;5095811;28;20649;-65
2023/05/14 06:47:11;;;;;;;7.80;4.50;;;15.50;99.90;;;;;;5104401;28;20279;-65
2023/05/14 06:49:41;;;;;;;4.67;3.73;;;15.70;99.90;;;;;;5105405;28;20287;-65
2023/05/14 06:52:08;;;;;;;9.23;4.60;;;15.80;99.90;;;;;;5109070;28;20206;-65
2023/05/14 06:54:38;;;;;;;4.90;4.30;;;16.00;99.90;;;;;;5106770;28;20196;-65
2023/05/14 06:57:05;;;;;;;5.37;3.90;;;16.20;99.90;;;;;;5107934;28;20292;-65
2023/05/14 06:59:32;;;;;;;4.67;4.23;;;16.40;99.90;;;;;;5108282;28;20212;-68
2023/05/14 07:02:00;;;;;;;3.93;3.37;;;16.60;99.90;;;;;;5109103;28;20295;-65
2023/05/14 07:04:27;;;;;;;3.50;3.20;;;16.80;99.70;;;;;;5096610;28;20193;-65
2023/05/14 07:06:54;;;;;;;4.30;2.90;;;16.90;99.10;;;;;;5105616;28;20200;-65
2023/05/14 07:09:23;;;;;;;3.23;2.47;;;17.00;98.90;;;;;;5107185;28;20522;-65
2023/05/14 07:11:50;;;;;;;3.17;2.43;;;17.00;98.50;;;;;;5105574;28;20279;-65
2023/05/14 07:14:19;;;;;;;2.90;2.30;;;17.10;98.30;;;;;;5104413;28;20619;-65
2023/05/14 07:16:51;;;;;;;4.47;3.43;;;17.00;98.00;;;;;;5102516;28;20203;-66
2023/05/14 07:19:21;;;;;;;5.53;2.47;;;17.00;97.80;;;;;;5107349;28;20202;-66
2023/05/14 07:21:50;;;;;;;2.40;2.20;;;17.00;97.80;;;;;;5108088;28;20205;-66
2023/05/14 07:24:17;;;;;;;3.13;2.20;;;16.90;97.50;;;;;;5100139;28;20198;-66
2023/05/14 07:26:44;;;;;;;4.07;2.50;;;16.80;97.50;;;;;;5106358;28;20225;-65
2023/05/14 07:29:11;;;;;;;2.97;2.67;;;16.70;97.50;;;;;;5104118;28;20291;-65
2023/05/14 07:31:38;;;;;;;3.63;2.77;;;16.60;97.50;;;;;;5107803;28;20220;-65
2023/05/14 07:34:07;;;;;;;3.10;2.23;;;16.60;97.70;;;;;;5104297;28;20233;-66
2023/05/14 07:36:36;;;;;;;4.87;2.90;;;16.50;97.70;;;;;;5106698;28;20197;-65
2023/05/14 07:39:06;;;;;;;3.27;2.50;;;16.40;97.80;;;;;;5105285;28;20823;-65
2023/05/14 07:41:32;;;;;;;3.57;2.90;;;16.40;97.90;;;;;;5101929;28;20212;-65
2023/05/14 07:43:59;;;;;;;7.73;3.17;;;16.30;98.10;;;;;;5090449;28;20215;-65
2023/05/14 07:46:26;;;;;;;5.17;2.50;;;16.30;98.20;;;;;;5107189;28;20277;-66
2023/05/14 07:48:53;;;;;;;4.67;3.23;;;16.30;98.30;;;;;;5090485;28;20549;-66
2023/05/14 07:51:20;;;;;;;6.90;4.63;;;16.30;98.40;;;;;;5105132;28;20265;-66
2023/05/14 07:53:50;;;;;;;6.03;4.70;;;16.30;98.50;;;;;;5091518;28;20635;-65
2023/05/14 07:56:18;;;;;;;10.00;7.87;;;16.30;98.50;;;;;;5104934;28;20307;-65
2023/05/14 07:58:45;;;;;;;12.03;10.07;;;16.30;98.40;;;;;;5102827;28;20196;-65
2023/05/14 08:01:12;;;;;;;14.30;12.23;;;16.30;98.50;;;;;;5109559;28;20251;-65
2023/05/14 08:03:39;;;;;;;15.87;10.53;;;16.30;98.60;;;;;;5107328;28;20266;-65
2023/05/14 08:06:09;;;;;;;7.30;6.07;;;16.30;98.50;;;;;;5104725;28;20248;-66
2023/05/14 08:08:38;;;;;;;5.43;4.97;;;16.20;98.40;;;;;;5104634;28;20886;-65
2023/05/14 08:11:05;;;;;;;4.97;3.37;;;16.20;98.40;;;;;;5105736;28;20218;-66
2023/05/14 08:13:35;;;;;;;4.13;3.13;;;16.20;98.40;;;;;;5103413;28;20754;-66
2023/05/14 08:16:03;;;;;;;3.17;2.87;;;16.10;98.40;;;;;;5104062;28;20211;-65
2023/05/14 08:18:30;;;;;;;5.90;2.83;;;16.10;98.50;;;;;;5099081;28;20198;-66
2023/05/14 08:21:00;;;;;;;3.10;2.80;;;16.10;98.70;;;;;;5105842;28;20267;-65
2023/05/14 08:23:29;;;;;;;3.40;3.10;;;16.10;98.50;;;;;;5104081;28;20192;-65
2023/05/14 08:25:56;;;;;;;3.20;2.90;;;16.10;98.50;;;;;;5107878;28;20291;-66
2023/05/14 08:28:23;;;;;;;5.20;3.73;;;16.10;98.70;;;;;;5089162;28;20513;-66
2023/05/14 08:30:51;;;;;;;3.83;2.97;;;16.10;98.70;;;;;;5103690;28;20194;-66
2023/05/14 08:33:18;;;;;;;3.23;2.90;;;16.10;98.50;;;;;;5104199;28;20204;-66
2023/05/14 08:35:46;;;;;;;3.47;3.17;;;16.10;98.40;;;;;;5103727;28;20289;-65
2023/05/14 08:38:14;;;;;;;3.97;2.87;;;16.10;98.50;;;;;;5104255;28;20301;-65
2023/05/14 08:40:41;;;;;;;3.97;2.70;;;16.10;98.60;;;;;;5101936;28;20243;-65
2023/05/14 08:43:10;;;;;;;4.60;3.53;;;16.20;98.60;;;;;;5091628;28;20548;-66
2023/05/14 08:45:39;;;;;;;4.13;3.20;;;16.20;98.60;;;;;;5099570;28;20262;-66
2023/05/14 08:48:14;;;;;;;5.10;3.17;;;16.30;98.70;;;;;;5080598;28;20201;-65
2023/05/14 08:50:42;;;;;;;4.93;3.40;;;16.40;98.80;;;;;;5088175;28;21553;-66
2023/05/14 08:53:10;;;;;;;4.57;3.23;;;16.50;98.70;;;;;;5088592;28;20216;-65
2023/05/14 08:55:37;;;;;;;4.23;3.03;;;16.60;98.60;;;;;;5091377;28;20211;-66
2023/05/14 08:58:06;;;;;;;3.47;2.93;;;16.70;98.40;;;;;;5101029;28;20274;-66
2023/05/14 09:00:33;;;;;;;3.27;2.90;;;16.70;98.40;;;;;;5102244;28;20258;-65
2023/05/14 09:03:01;;;;;;;4.93;3.27;;;16.80;98.10;;;;;;5102367;28;20212;-66
2023/05/14 09:05:32;;;;;;;4.23;2.80;;;16.80;97.90;;;;;;5103447;28;20185;-65
2023/05/14 09:08:01;;;;;;;5.83;2.90;;;16.90;98.00;;;;;;5101611;28;20287;-65
2023/05/14 09:10:28;;;;;;;2.63;2.43;;;17.00;97.70;;;;;;5101068;28;20229;-66
2023/05/14 09:12:55;;;;;;;4.83;2.87;;;17.00;97.10;;;;;;5100941;28;20273;-66
2023/05/14 09:15:26;;;;;;;3.50;2.70;;;17.00;97.00;;;;;;5099017;28;20281;-65
2023/05/14 09:17:53;;;;;;;2.87;2.53;;;17.10;97.20;;;;;;5104476;28;20219;-66
2023/05/14 09:20:27;;;;;;;4.37;2.90;;;17.10;97.10;;;;;;5099592;28;20229;-65
2023/05/14 09:22:55;;;;;;;5.10;3.27;;;17.20;97.40;;;;;;5084507;28;20218;-65
2023/05/14 09:25:27;;;;;;;4.07;2.90;;;17.20;97.30;;;;;;5110610;28;20206;-65
2023/05/14 09:27:55;;;;;;;4.40;3.93;;;17.30;96.90;;;;;;5102876;28;20194;-65
2023/05/14 09:30:27;;;;;;;4.60;3.23;;;17.30;96.50;;;;;;5094701;28;20205;-65
2023/05/14 09:32:54;;;;;;;3.87;2.70;;;17.30;96.10;;;;;;5109349;28;20614;-66
2023/05/14 09:35:26;;;;;;;4.50;2.77;;;17.20;95.60;;;;;;5092913;28;20284;-65
2023/05/14 09:37:54;;;;;;;4.87;2.90;;;17.10;95.60;;;;;;5081304;28;20596;-66
2023/05/14 09:40:23;;;;;;;4.60;2.43;;;17.10;95.80;;;;;;5090855;28;20197;-65
2023/05/14 09:42:50;;;;;;;2.10;1.90;;;17.00;96.10;;;;;;5091778;28;20278;-65
2023/05/14 09:45:22;;;;;;;1.90;1.80;;;17.10;96.20;;;;;;5087542;28;20198;-65
2023/05/14 09:47:52;;;;;;;3.20;2.10;;;17.00;95.90;;;;;;5091323;28;20201;-65
2023/05/14 09:50:19;;;;;;;2.37;2.07;;;17.00;95.80;;;;;;5086521;28;20210;-65
2023/05/14 09:52:52;;;;;;;1.53;1.43;;;16.90;96.00;;;;;;5087654;28;20597;-65
2023/05/14 09:55:24;;;;;;;2.90;1.50;;;17.00;96.10;;;;;;5087754;28;20283;-65
2023/05/14 09:57:51;;;;;;;1.50;1.40;;;16.90;95.40;;;;;;5084324;28;20224;-65
2023/05/14 10:00:18;;;;;;;2.17;1.70;;;16.90;95.10;;;;;;5091179;28;20644;-65
2023/05/14 10:02:46;;;;;;;2.57;1.37;;;16.80;95.10;;;;;;5086285;28;20284;-66
2023/05/14 10:05:15;;;;;;;2.70;1.77;;;16.70;95.30;;;;;;5090856;28;20229;-65
2023/05/14 10:07:47;;;;;;;1.70;1.60;;;16.70;95.30;;;;;;5090660;28;20202;-65
2023/05/14 10:10:18;;;;;;;3.50;2.07;;;16.70;95.50;;;;;;5086627;28;20197;-65
2023/05/14 10:12:54;;;;;;;2.33;2.13;;;16.80;95.80;;;;;;5087868;28;20485;-65
2023/05/14 10:15:47;;;;;;;2.33;1.70;;;16.90;96.00;;;;;;5085769;28;20197;-65
2023/05/14 10:18:18;;;;;;;2.30;1.60;;;16.90;95.80;;;;;;5088455;28;20205;-65
2023/05/14 10:21:06;;;;;;;1.27;1.03;;;16.90;95.50;;;;;;5085211;28;20272;-65
2023/05/14 10:23:39;;;;;;;2.60;1.20;;;16.90;95.30;;;;;;5084350;28;20525;-66
2023/05/14 10:26:07;;;;;;;1.33;0.97;;;16.80;95.40;;;;;;5082781;28;20213;-65
2023/05/14 10:28:35;;;;;;;1.90;1.20;;;16.80;95.10;;;;;;5083137;28;20680;-65
2023/05/14 10:31:02;;;;;;;3.43;1.37;;;16.70;95.60;;;;;;5081944;28;20263;-65
2023/05/14 10:33:29;;;;;;;2.27;1.60;;;16.50;95.80;;;;;;5088602;28;20659;-65
2023/05/14 10:36:04;;;;;;;4.10;1.70;;;16.30;96.10;;;;;;5100373;28;20229;-64
2023/05/14 10:38:34;;;;;;;5.13;2.00;;;16.10;96.60;;;;;;5104437;28;20203;-64
2023/05/14 10:41:04;;;;;;;4.03;1.77;;;16.00;97.30;;;;;;5101307;28;20541;-64
2023/05/14 10:43:40;;;;;;;2.57;1.30;;;15.90;97.70;;;;;;5107122;28;20879;-65
2023/05/14 10:46:09;;;;;;;3.40;1.73;;;15.80;98.00;;;;;;5102536;28;20196;-64
2023/05/14 10:48:38;;;;;;;3.37;2.10;;;15.80;98.40;;;;;;5106747;28;20580;-65
2023/05/14 10:51:08;;;;;;;2.03;1.93;;;15.70;98.70;;;;;;5103047;28;20209;-65
2023/05/14 10:53:37;;;;;;;4.30;2.67;;;15.70;98.90;;;;;;5098922;28;20196;-65
2023/05/14 10:56:08;;;;;;;2.30;2.10;;;15.80;99.00;;;;;;5104527;28;20199;-65
2023/05/14 10:58:43;;;;;;;3.20;2.03;;;15.80;99.10;;;;;;5102588;28;20218;-65
2023/05/14 11:01:12;;;;;;;2.17;1.97;;;15.80;99.00;;;;;;5106146;28;20199;-65
2023/05/14 11:03:44;;;;;;;2.20;2.00;;;15.80;98.90;;;;;;5100742;28;20262;-65
2023/05/14 11:06:15;;;;;;;2.17;2.00;;;15.80;98.60;;;;;;5107624;28;20205;-65
2023/05/14 11:08:43;;;;;;;3.10;1.70;;;15.70;98.70;;;;;;5099185;28;20659;-65
2023/05/14 11:11:10;;;;;;;3.00;1.90;;;15.70;98.80;;;;;;5103568;28;20194;-65
2023/05/14 11:13:40;;;;;;;1.80;1.30;;;15.70;98.70;;;;;;5107074;28;20200;-65
2023/05/14 11:16:07;;;;;;;1.60;1.50;;;15.70;98.80;;;;;;5105328;28;20197;-64
2023/05/14 11:19:03;;;;;;;1.60;1.50;;;15.70;98.60;;;;;;5105417;28;20208;-64
2023/05/14 11:21:33;;;;;;;5.30;2.70;;;15.70;98.50;;;;;;5106397;28;20213;-65
2023/05/14 11:24:00;;;;;;;1.70;1.43;;;15.70;98.50;;;;;;5092632;28;20205;-65
2023/05/14 11:26:27;;;;;;;1.30;1.20;;;15.70;98.60;;;;;;5106205;28;20204;-65
2023/05/14 11:28:54;;;;;;;1.70;1.60;;;15.80;98.70;;;;;;5107068;28;20212;-65
2023/05/14 11:31:22;;;;;;;2.53;1.87;;;15.80;98.60;;;;;;5104277;28;20210;-65
2023/05/14 11:33:51;;;;;;;1.83;1.73;;;15.90;98.80;;;;;;5106363;28;20272;-65
2023/05/14 11:36:18;;;;;;;4.20;2.90;;;15.90;98.90;;;;;;5103199;28;20200;-65
2023/05/14 11:38:50;;;;;;;1.67;1.10;;;16.10;98.90;;;;;;5087315;28;20193;-65
2023/05/14 11:41:19;;;;;;;1.23;1.13;;;16.10;98.90;;;;;;5105079;28;20531;-65
2023/05/14 11:43:47;;;;;;;1.00;1.00;;;16.20;98.70;;;;;;5107107;28;20201;-65
2023/05/14 11:46:18;;;;;;;1.00;1.00;;;16.30;98.60;;;;;;5106025;28;20197;-65
2023/05/14 11:48:45;;;;;;;1.10;1.00;;;16.30;98.60;;;;;;5098913;28;20606;-65
2023/05/14 11:51:13;;;;;;;1.20;1.20;;;16.50;98.30;;;;;;5095559;28;20204;-65
2023/05/14 11:53:40;;;;;;;1.33;1.23;;;16.60;98.00;;;;;;5101840;28;20274;-65
2023/05/14 11:56:07;;;;;;;2.97;1.63;;;16.60;97.80;;;;;;5105258;28;20729;-65
2023/05/14 11:58:36;;;;;;;2.93;1.60;;;16.70;98.00;;;;;;5104512;28;20237;-65
2023/05/14 12:01:03;;;;;;;2.07;1.77;;;16.90;98.10;;;;;;5104782;28;20560;-65
2023/05/14 12:03:31;;;;;;;1.93;1.83;;;17.10;98.10;;;;;;5107185;28;20294;-65
2023/05/14 12:06:00;;;;;;;2.57;1.50;;;17.30;98.00;;;;;;5100441;28;20187;-65
2023/05/14 12:08:30;;;;;;;2.00;1.90;;;17.50;97.60;;;;;;5106304;28;20574;-65
2023/05/14 12:10:58;;;;;;;3.27;2.30;;;17.70;96.90;;;;;;5102052;28;20573;-65
2023/05/14 12:13:27;;;;;;;4.43;2.90;;;17.80;96.40;;;;;;5108114;28;20221;-65
2023/05/14 12:15:57;;;;;;;2.50;2.30;;;17.90;96.20;;;;;;5101424;28;20534;-65
2023/05/14 12:18:24;;;;;;;2.87;2.63;;;17.90;96.10;;;;;;5108114;28;20220;-65
2023/05/14 12:20:54;;;;;;;3.53;2.93;;;18.00;96.00;;;;;;5108485;28;20200;-65
2023/05/14 12:23:26;;;;;;;2.77;2.57;;;18.10;95.90;;;;;;5105197;28;20302;-65
2023/05/14 12:25:53;;;;;;;3.17;2.97;;;18.20;95.70;;;;;;5107634;28;20649;-65
2023/05/14 12:28:22;;;;;;;3.20;3.00;;;18.30;95.00;;;;;;5105508;28;20477;-65
2023/05/14 12:30:56;;;;;;;2.67;2.47;;;18.40;95.00;;;;;;5102415;28;20198;-65
2023/05/14 12:33:25;;;;;;;5.13;2.83;;;18.50;94.60;;;;;;5106337;28;20194;-65
2023/05/14 12:35:53;;;;;;;2.90;2.70;;;18.50;94.00;;;;;;5093283;28;20236;-65
2023/05/14 12:38:20;;;;;;;2.70;2.50;;;18.40;93.90;;;;;;5094361;28;20584;-66
2023/05/14 12:40:46;;;;;;;2.97;2.70;;;18.30;93.50;;;;;;5091054;28;20241;-65
2023/05/14 12:43:16;;;;;;;5.47;2.70;;;18.20;93.60;;;;;;5104518;28;20235;-65
2023/05/14 12:45:45;;;;;;;2.57;2.37;;;18.20;93.80;;;;;;5085923;28;20294;-65
2023/05/14 12:48:13;;;;;;;2.37;2.17;;;18.10;93.30;;;;;;5104933;28;20209;-65
2023/05/14 12:50:40;;;;;;;2.07;1.50;;;18.10;93.70;;;;;;5107004;28;20200;-65
2023/05/14 12:53:15;;;;;;;4.80;2.17;;;18.10;93.40;;;;;;5100459;28;20639;-65